sensor_id;sensor_type;location;lat;lon;timestamp;temperature;humidity
16823;DHT22;8528;49.976;11.858;2023-04-01T00:01:27;6.60;99.90
16823;DHT22;8528;49.976;11.858;2023-04-01T00:03:54;6.60;99.90
16823;DHT22;8528;49.976;11.858;2023-04-01T00:06:23;6.60;99.90
16823;DHT22;8528;49.976;11.858;2023-04-01T00:08:50;6.60;99.90
16823;DHT22;8528;49.976;11.858;2023-04-01T00:11:17;6.60;99.90
16823;DHT22;8528;49.976;11.858;2023-04-01T00:13:46;6.60;99.90
16823;DHT22;8528;49.976;11.858;2023-04-01T00:16:14;6.70;99.90
16823;DHT22;8528;49.976;11.858;2023-04-01T00:18:45;6.70;99.90
16823;DHT22;8528;49.976;11.858;2023-04-01T00:21:13;6.70;99.90
16823;DHT22;8528;49.976;11.858;2023-04-01T00:23:40;6.70;99.90
16823;DHT22;8528;49.976;11.858;2023-04-01T00:26:07;6.70;99.90
16823;DHT22;8528;49.976;11.858;2023-04-01T00:28:34;6.70;99.90
16823;DHT22;8528;49.976;11.858;2023-04-01T00:31:08;6.70;99.90
16823;DHT22;8528;49.976;11.858;2023-04-01T00:33:36;6.60;99.90
16823;DHT22;8528;49.976;11.858;2023-04-01T00:36:11;6.60;99.90
16823;DHT22;8528;49.976;11.858;2023-04-01T00:38:39;6.60;99.90
16823;DHT22;8528;49.976;11.858;2023-04-01T00:41:07;6.60;99.90
16823;DHT22;8528;49.976;11.858;2023-04-01T00:43:35;6.70;99.90
16823;DHT22;8528;49.976;11.858;2023-04-01T00:46:02;6.70;99.90
16823;DHT22;8528;49.976;11.858;2023-04-01T00:48:33;6.70;99.90
16823;DHT22;8528;49.976;11.858;2023-04-01T00:51:02;6.70;99.90
16823;DHT22;8528;49.976;11.858;2023-04-01T00:53:31;6.70;99.90
16823;DHT22;8528;49.976;11.858;2023-04-01T00:56:12;6.70;99.90
16823;DHT22;8528;49.976;11.858;2023-04-01T00:58:44;6.70;99.90
16823;DHT22;8528;49.976;11.858;2023-04-01T01:01:12;6.70;99.90
16823;DHT22;8528;49.976;11.858;2023-04-01T01:03:39;6.60;99.90
16823;DHT22;8528;49.976;11.858;2023-04-01T01:11:36;6.60;99.90
16823;DHT22;8528;49.976;11.858;2023-04-01T01:14:25;6.70;99.90
16823;DHT22;8528;49.976;11.858;2023-04-01T01:17:03;6.60;99.90
16823;DHT22;8528;49.976;11.858;2023-04-01T01:25:48;6.70;99.90
16823;DHT22;8528;49.976;11.858;2023-04-01T01:33:35;6.90;99.90
16823;DHT22;8528;49.976;11.858;2023-04-01T01:36:12;6.80;99.90
16823;DHT22;8528;49.976;11.858;2023-04-01T01:38:40;6.80;99.90
16823;DHT22;8528;49.976;11.858;2023-04-01T01:41:07;6.80;99.90
16823;DHT22;8528;49.976;11.858;2023-04-01T01:43:44;6.80;99.90
16823;DHT22;8528;49.976;11.858;2023-04-01T01:46:19;6.80;99.90
16823;DHT22;8528;49.976;11.858;2023-04-01T01:48:47;6.90;99.90
16823;DHT22;8528;49.976;11.858;2023-04-01T01:51:16;6.90;99.90
16823;DHT22;8528;49.976;11.858;2023-04-01T01:53:43;6.90;99.90
16823;DHT22;8528;49.976;11.858;2023-04-01T01:56:11;6.80;99.90
16823;DHT22;8528;49.976;11.858;2023-04-01T01:58:43;6.90;99.90
16823;DHT22;8528;49.976;11.858;2023-04-01T02:01:21;7.00;99.90
16823;DHT22;8528;49.976;11.858;2023-04-01T02:03:51;6.90;99.90
16823;DHT22;8528;49.976;11.858;2023-04-01T02:06:21;7.00;99.90
16823;DHT22;8528;49.976;11.858;2023-04-01T02:09:05;7.00;99.90
16823;DHT22;8528;49.976;11.858;2023-04-01T02:11:42;7.00;99.90
16823;DHT22;8528;49.976;11.858;2023-04-01T02:14:13;7.00;99.90
16823;DHT22;8528;49.976;11.858;2023-04-01T02:19:17;6.90;99.90
16823;DHT22;8528;49.976;11.858;2023-04-01T02:21:52;6.90;99.90
16823;DHT22;8528;49.976;11.858;2023-04-01T02:24:20;6.90;99.90
16823;DHT22;8528;49.976;11.858;2023-04-01T02:26:50;6.90;99.90
16823;DHT22;8528;49.976;11.858;2023-04-01T02:29:22;6.90;99.90
16823;DHT22;8528;49.976;11.858;2023-04-01T02:31:50;6.90;99.90
16823;DHT22;8528;49.976;11.858;2023-04-01T02:34:18;6.90;99.90
16823;DHT22;8528;49.976;11.858;2023-04-01T02:36:47;6.90;99.90
16823;DHT22;8528;49.976;11.858;2023-04-01T02:39:15;6.90;99.90
16823;DHT22;8528;49.976;11.858;2023-04-01T02:41:43;6.90;99.90
16823;DHT22;8528;49.976;11.858;2023-04-01T02:44:12;6.90;99.90
16823;DHT22;8528;49.976;11.858;2023-04-01T02:46:39;6.90;99.90
16823;DHT22;8528;49.976;11.858;2023-04-01T02:49:06;6.90;99.90
16823;DHT22;8528;49.976;11.858;2023-04-01T02:51:33;6.90;99.90
16823;DHT22;8528;49.976;11.858;2023-04-01T02:54:00;6.90;99.90
16823;DHT22;8528;49.976;11.858;2023-04-01T02:56:27;6.90;99.90
16823;DHT22;8528;49.976;11.858;2023-04-01T02:58:54;7.00;99.90
16823;DHT22;8528;49.976;11.858;2023-04-01T03:01:22;6.90;99.90
16823;DHT22;8528;49.976;11.858;2023-04-01T03:03:49;7.00;99.90
16823;DHT22;8528;49.976;11.858;2023-04-01T03:06:16;6.90;99.90
16823;DHT22;8528;49.976;11.858;2023-04-01T03:08:44;6.90;99.90
16823;DHT22;8528;49.976;11.858;2023-04-01T03:11:11;6.90;99.90
16823;DHT22;8528;49.976;11.858;2023-04-01T03:13:38;6.90;99.90
16823;DHT22;8528;49.976;11.858;2023-04-01T03:16:05;6.90;99.90
16823;DHT22;8528;49.976;11.858;2023-04-01T03:18:32;7.00;99.90
16823;DHT22;8528;49.976;11.858;2023-04-01T03:21:22;6.90;99.90
16823;DHT22;8528;49.976;11.858;2023-04-01T03:23:49;6.90;99.90
16823;DHT22;8528;49.976;11.858;2023-04-01T03:26:16;7.00;99.90
16823;DHT22;8528;49.976;11.858;2023-04-01T03:28:43;6.90;99.90
16823;DHT22;8528;49.976;11.858;2023-04-01T03:31:11;6.90;99.90
16823;DHT22;8528;49.976;11.858;2023-04-01T03:33:37;6.90;99.90
16823;DHT22;8528;49.976;11.858;2023-04-01T03:36:05;7.00;99.90
16823;DHT22;8528;49.976;11.858;2023-04-01T03:38:34;7.00;99.90
16823;DHT22;8528;49.976;11.858;2023-04-01T03:41:01;7.00;99.90
16823;DHT22;8528;49.976;11.858;2023-04-01T03:43:28;7.00;99.90
16823;DHT22;8528;49.976;11.858;2023-04-01T03:45:55;7.00;99.90
16823;DHT22;8528;49.976;11.858;2023-04-01T03:48:24;7.00;99.90
16823;DHT22;8528;49.976;11.858;2023-04-01T03:50:51;7.00;99.90
16823;DHT22;8528;49.976;11.858;2023-04-01T03:53:18;7.00;99.90
16823;DHT22;8528;49.976;11.858;2023-04-01T03:55:46;7.00;99.90
16823;DHT22;8528;49.976;11.858;2023-04-01T03:58:13;7.00;99.90
16823;DHT22;8528;49.976;11.858;2023-04-01T04:00:40;7.00;99.90
16823;DHT22;8528;49.976;11.858;2023-04-01T04:03:07;6.90;99.90
16823;DHT22;8528;49.976;11.858;2023-04-01T04:05:34;6.90;99.90
16823;DHT22;8528;49.976;11.858;2023-04-01T04:08:02;7.00;99.90
16823;DHT22;8528;49.976;11.858;2023-04-01T04:10:29;7.00;99.90
16823;DHT22;8528;49.976;11.858;2023-04-01T04:12:56;7.00;99.90
16823;DHT22;8528;49.976;11.858;2023-04-01T04:15:23;6.90;99.90
16823;DHT22;8528;49.976;11.858;2023-04-01T04:17:50;6.90;99.90
16823;DHT22;8528;49.976;11.858;2023-04-01T04:20:16;6.90;99.90
16823;DHT22;8528;49.976;11.858;2023-04-01T04:22:43;6.90;99.90
16823;DHT22;8528;49.976;11.858;2023-04-01T04:25:10;6.90;99.90
16823;DHT22;8528;49.976;11.858;2023-04-01T04:27:37;6.90;99.90
16823;DHT22;8528;49.976;11.858;2023-04-01T04:30:05;7.00;99.90
16823;DHT22;8528;49.976;11.858;2023-04-01T04:32:33;7.00;99.90
16823;DHT22;8528;49.976;11.858;2023-04-01T04:35:00;6.90;99.90
16823;DHT22;8528;49.976;11.858;2023-04-01T04:37:27;6.90;99.90
16823;DHT22;8528;49.976;11.858;2023-04-01T04:39:53;6.90;99.90
16823;DHT22;8528;49.976;11.858;2023-04-01T04:42:20;6.80;99.90
16823;DHT22;8528;49.976;11.858;2023-04-01T04:44:47;6.80;99.90
16823;DHT22;8528;49.976;11.858;2023-04-01T04:47:13;6.80;99.90
16823;DHT22;8528;49.976;11.858;2023-04-01T04:49:40;6.80;99.90
16823;DHT22;8528;49.976;11.858;2023-04-01T04:52:07;6.70;99.90
16823;DHT22;8528;49.976;11.858;2023-04-01T04:54:34;6.70;99.90
16823;DHT22;8528;49.976;11.858;2023-04-01T04:57:01;6.70;99.90
16823;DHT22;8528;49.976;11.858;2023-04-01T04:59:28;6.60;99.90
16823;DHT22;8528;49.976;11.858;2023-04-01T05:01:55;6.70;99.90
16823;DHT22;8528;49.976;11.858;2023-04-01T05:04:22;6.70;99.90
16823;DHT22;8528;49.976;11.858;2023-04-01T05:06:48;6.60;99.90
16823;DHT22;8528;49.976;11.858;2023-04-01T05:09:15;6.60;99.90
16823;DHT22;8528;49.976;11.858;2023-04-01T05:11:42;6.70;99.90
16823;DHT22;8528;49.976;11.858;2023-04-01T05:14:15;6.70;99.90
16823;DHT22;8528;49.976;11.858;2023-04-01T05:16:42;6.80;99.90
16823;DHT22;8528;49.976;11.858;2023-04-01T05:19:09;6.80;99.90
16823;DHT22;8528;49.976;11.858;2023-04-01T05:21:36;6.80;99.90
16823;DHT22;8528;49.976;11.858;2023-04-01T05:24:03;6.80;99.90
16823;DHT22;8528;49.976;11.858;2023-04-01T05:26:33;6.80;99.90
16823;DHT22;8528;49.976;11.858;2023-04-01T05:29:00;6.80;99.90
16823;DHT22;8528;49.976;11.858;2023-04-01T05:31:27;6.80;99.90
16823;DHT22;8528;49.976;11.858;2023-04-01T05:33:54;6.80;99.90
16823;DHT22;8528;49.976;11.858;2023-04-01T05:36:21;6.80;99.90
16823;DHT22;8528;49.976;11.858;2023-04-01T05:38:48;6.80;99.90
16823;DHT22;8528;49.976;11.858;2023-04-01T05:41:15;6.90;99.90
16823;DHT22;8528;49.976;11.858;2023-04-01T05:43:42;6.90;99.90
16823;DHT22;8528;49.976;11.858;2023-04-01T05:46:09;6.90;99.90
16823;DHT22;8528;49.976;11.858;2023-04-01T05:48:36;7.00;99.90
16823;DHT22;8528;49.976;11.858;2023-04-01T05:51:04;7.00;99.90
16823;DHT22;8528;49.976;11.858;2023-04-01T05:53:31;7.00;99.90
16823;DHT22;8528;49.976;11.858;2023-04-01T05:56:02;6.90;99.90
16823;DHT22;8528;49.976;11.858;2023-04-01T05:58:29;6.90;99.90
16823;DHT22;8528;49.976;11.858;2023-04-01T06:01:01;6.90;99.90
16823;DHT22;8528;49.976;11.858;2023-04-01T06:03:38;6.90;99.90
16823;DHT22;8528;49.976;11.858;2023-04-01T06:06:09;6.90;99.90
16823;DHT22;8528;49.976;11.858;2023-04-01T06:08:38;6.90;99.90
16823;DHT22;8528;49.976;11.858;2023-04-01T06:18:57;7.00;99.90
16823;DHT22;8528;49.976;11.858;2023-04-01T06:24:39;7.00;99.90
16823;DHT22;8528;49.976;11.858;2023-04-01T06:30:02;7.10;99.90
16823;DHT22;8528;49.976;11.858;2023-04-01T06:46:47;6.90;99.90
16823;DHT22;8528;49.976;11.858;2023-04-01T06:55:14;6.90;99.90
16823;DHT22;8528;49.976;11.858;2023-04-01T06:57:47;6.90;99.90
16823;DHT22;8528;49.976;11.858;2023-04-01T07:03:02;7.00;99.90
16823;DHT22;8528;49.976;11.858;2023-04-01T07:05:33;7.10;99.90
16823;DHT22;8528;49.976;11.858;2023-04-01T07:08:03;7.20;99.90
16823;DHT22;8528;49.976;11.858;2023-04-01T07:10:38;7.20;99.90
16823;DHT22;8528;49.976;11.858;2023-04-01T07:13:25;7.20;99.90
16823;DHT22;8528;49.976;11.858;2023-04-01T07:16:26;7.40;99.90
16823;DHT22;8528;49.976;11.858;2023-04-01T07:19:08;7.50;99.90
16823;DHT22;8528;49.976;11.858;2023-04-01T07:21:40;7.50;99.90
16823;DHT22;8528;49.976;11.858;2023-04-01T07:24:17;7.60;99.90
16823;DHT22;8528;49.976;11.858;2023-04-01T07:26:56;7.60;99.90
16823;DHT22;8528;49.976;11.858;2023-04-01T07:29:23;7.50;99.90
16823;DHT22;8528;49.976;11.858;2023-04-01T07:34:30;7.60;99.90
16823;DHT22;8528;49.976;11.858;2023-04-01T07:42:58;7.70;99.90
16823;DHT22;8528;49.976;11.858;2023-04-01T07:50:57;7.70;99.90
16823;DHT22;8528;49.976;11.858;2023-04-01T08:05:24;7.80;99.90
16823;DHT22;8528;49.976;11.858;2023-04-01T08:08:02;7.80;99.90
16823;DHT22;8528;49.976;11.858;2023-04-01T08:10:35;7.80;99.90
16823;DHT22;8528;49.976;11.858;2023-04-01T08:21:52;7.70;99.90
16823;DHT22;8528;49.976;11.858;2023-04-01T08:24:42;7.70;99.90
16823;DHT22;8528;49.976;11.858;2023-04-01T08:27:37;7.70;99.90
16823;DHT22;8528;49.976;11.858;2023-04-01T08:32:57;7.70;99.90
16823;DHT22;8528;49.976;11.858;2023-04-01T08:35:42;7.60;99.90
16823;DHT22;8528;49.976;11.858;2023-04-01T08:39:04;7.60;99.90
16823;DHT22;8528;49.976;11.858;2023-04-01T08:44:27;7.50;99.90
16823;DHT22;8528;49.976;11.858;2023-04-01T08:50:53;7.60;99.90
16823;DHT22;8528;49.976;11.858;2023-04-01T08:53:07;7.50;99.90
16823;DHT22;8528;49.976;11.858;2023-04-01T08:56:02;7.60;99.90
16823;DHT22;8528;49.976;11.858;2023-04-01T08:58:52;7.60;99.90
16823;DHT22;8528;49.976;11.858;2023-04-01T09:06:59;7.50;99.90
16823;DHT22;8528;49.976;11.858;2023-04-01T09:15:20;7.60;99.90
16823;DHT22;8528;49.976;11.858;2023-04-01T09:26:58;8.00;99.90
16823;DHT22;8528;49.976;11.858;2023-04-01T09:32:40;8.30;99.90
16823;DHT22;8528;49.976;11.858;2023-04-01T09:35:25;8.50;99.90
16823;DHT22;8528;49.976;11.858;2023-04-01T09:46:55;8.70;99.90
16823;DHT22;8528;49.976;11.858;2023-04-01T09:49:38;8.70;99.90
16823;DHT22;8528;49.976;11.858;2023-04-01T09:55:17;8.60;99.90
16823;DHT22;8528;49.976;11.858;2023-04-01T10:10:23;8.20;99.90
16823;DHT22;8528;49.976;11.858;2023-04-01T10:16:26;8.10;99.90
16823;DHT22;8528;49.976;11.858;2023-04-01T10:30:34;8.60;99.90
16823;DHT22;8528;49.976;11.858;2023-04-01T10:55:58;8.90;99.90
16823;DHT22;8528;49.976;11.858;2023-04-01T11:21:51;9.00;99.90
16823;DHT22;8528;49.976;11.858;2023-04-01T11:27:41;9.10;99.90
16823;DHT22;8528;49.976;11.858;2023-04-01T11:30:07;9.00;99.90
16823;DHT22;8528;49.976;11.858;2023-04-01T11:35:55;9.00;99.90
16823;DHT22;8528;49.976;11.858;2023-04-01T11:41:56;9.00;99.90
16823;DHT22;8528;49.976;11.858;2023-04-01T11:44:26;8.80;99.90
16823;DHT22;8528;49.976;11.858;2023-04-01T11:49:40;8.70;99.90
16823;DHT22;8528;49.976;11.858;2023-04-01T12:03:10;9.20;99.90
16823;DHT22;8528;49.976;11.858;2023-04-01T12:09:16;9.50;99.90
16823;DHT22;8528;49.976;11.858;2023-04-01T12:11:56;9.80;99.90
16823;DHT22;8528;49.976;11.858;2023-04-01T12:15:02;10.10;99.90
16823;DHT22;8528;49.976;11.858;2023-04-01T12:17:50;10.00;99.90
16823;DHT22;8528;49.976;11.858;2023-04-01T12:20:24;9.90;99.90
16823;DHT22;8528;49.976;11.858;2023-04-01T12:26:01;9.80;99.90
16823;DHT22;8528;49.976;11.858;2023-04-01T12:28:48;9.50;99.90
16823;DHT22;8528;49.976;11.858;2023-04-01T12:31:51;9.30;99.90
16823;DHT22;8528;49.976;11.858;2023-04-01T12:35:36;9.00;99.90
16823;DHT22;8528;49.976;11.858;2023-04-01T12:37:45;8.80;99.90
16823;DHT22;8528;49.976;11.858;2023-04-01T12:46:11;8.70;99.90
16823;DHT22;8528;49.976;11.858;2023-04-01T12:54:42;8.60;99.90
16823;DHT22;8528;49.976;11.858;2023-04-01T13:00:38;8.60;99.90
16823;DHT22;8528;49.976;11.858;2023-04-01T13:03:43;8.70;99.90
16823;DHT22;8528;49.976;11.858;2023-04-01T13:09:22;8.60;99.90
16823;DHT22;8528;49.976;11.858;2023-04-01T13:12:09;8.60;99.90
16823;DHT22;8528;49.976;11.858;2023-04-01T13:15:07;8.60;99.90
16823;DHT22;8528;49.976;11.858;2023-04-01T13:18:09;8.70;99.90
16823;DHT22;8528;49.976;11.858;2023-04-01T13:29:14;8.50;99.90
16823;DHT22;8528;49.976;11.858;2023-04-01T13:31:59;8.30;99.90
16823;DHT22;8528;49.976;11.858;2023-04-01T13:43:19;8.00;99.90
16823;DHT22;8528;49.976;11.858;2023-04-01T13:54:25;7.90;99.90
16823;DHT22;8528;49.976;11.858;2023-04-01T14:08:11;7.80;99.90
16823;DHT22;8528;49.976;11.858;2023-04-01T14:13:44;7.90;99.90
16823;DHT22;8528;49.976;11.858;2023-04-01T14:16:47;7.90;99.90
16823;DHT22;8528;49.976;11.858;2023-04-01T14:22:37;8.00;99.90
16823;DHT22;8528;49.976;11.858;2023-04-01T14:25:29;8.00;99.90
16823;DHT22;8528;49.976;11.858;2023-04-01T14:28:18;8.10;99.90
16823;DHT22;8528;49.976;11.858;2023-04-01T14:31:15;8.20;99.90
16823;DHT22;8528;49.976;11.858;2023-04-01T14:50:47;8.00;99.90
16823;DHT22;8528;49.976;11.858;2023-04-01T14:53:30;8.00;99.90
16823;DHT22;8528;49.976;11.858;2023-04-01T14:55:59;7.90;99.90
16823;DHT22;8528;49.976;11.858;2023-04-01T14:58:46;7.90;99.90
16823;DHT22;8528;49.976;11.858;2023-04-01T15:06:56;8.00;99.90
16823;DHT22;8528;49.976;11.858;2023-04-01T15:18:20;7.90;99.90
16823;DHT22;8528;49.976;11.858;2023-04-01T15:29:56;7.90;99.90
16823;DHT22;8528;49.976;11.858;2023-04-01T15:32:59;7.80;99.90
16823;DHT22;8528;49.976;11.858;2023-04-01T15:35:43;7.80;99.90
16823;DHT22;8528;49.976;11.858;2023-04-01T15:41:18;7.80;99.90
16823;DHT22;8528;49.976;11.858;2023-04-01T15:43:47;7.80;99.90
16823;DHT22;8528;49.976;11.858;2023-04-01T15:51:28;7.80;99.90
16823;DHT22;8528;49.976;11.858;2023-04-01T15:57:25;7.80;99.90
16823;DHT22;8528;49.976;11.858;2023-04-01T16:08:36;7.70;99.90
16823;DHT22;8528;49.976;11.858;2023-04-01T16:11:14;7.60;99.90
16823;DHT22;8528;49.976;11.858;2023-04-01T16:22:39;7.50;99.90
16823;DHT22;8528;49.976;11.858;2023-04-01T16:28:30;7.50;99.90
16823;DHT22;8528;49.976;11.858;2023-04-01T16:33:58;7.50;99.90
16823;DHT22;8528;49.976;11.858;2023-04-01T16:39:22;7.50;99.90
16823;DHT22;8528;49.976;11.858;2023-04-01T16:42:35;7.50;99.90
16823;DHT22;8528;49.976;11.858;2023-04-01T16:47:40;7.50;99.90
16823;DHT22;8528;49.976;11.858;2023-04-01T16:50:22;7.50;99.90
16823;DHT22;8528;49.976;11.858;2023-04-01T16:53:14;7.50;99.90
16823;DHT22;8528;49.976;11.858;2023-04-01T16:55:50;7.40;99.90
16823;DHT22;8528;49.976;11.858;2023-04-01T16:58:48;7.40;99.90
16823;DHT22;8528;49.976;11.858;2023-04-01T17:01:26;7.40;99.90
16823;DHT22;8528;49.976;11.858;2023-04-01T17:04:00;7.40;99.90
16823;DHT22;8528;49.976;11.858;2023-04-01T17:06:51;7.40;99.90
16823;DHT22;8528;49.976;11.858;2023-04-01T17:09:46;7.40;99.90
16823;DHT22;8528;49.976;11.858;2023-04-01T17:12:37;7.30;99.90
16823;DHT22;8528;49.976;11.858;2023-04-01T17:18:48;7.30;99.90
16823;DHT22;8528;49.976;11.858;2023-04-01T17:23:50;7.30;99.90
16823;DHT22;8528;49.976;11.858;2023-04-01T17:26:37;7.30;99.90
16823;DHT22;8528;49.976;11.858;2023-04-01T17:29:17;7.30;99.90
16823;DHT22;8528;49.976;11.858;2023-04-01T17:35:02;7.30;99.90
16823;DHT22;8528;49.976;11.858;2023-04-01T17:40:31;7.20;99.90
16823;DHT22;8528;49.976;11.858;2023-04-01T17:43:16;7.20;99.90
16823;DHT22;8528;49.976;11.858;2023-04-01T17:45:49;7.20;99.90
16823;DHT22;8528;49.976;11.858;2023-04-01T17:48:40;7.20;99.90
16823;DHT22;8528;49.976;11.858;2023-04-01T17:56:59;7.10;99.90
16823;DHT22;8528;49.976;11.858;2023-04-01T17:59:38;7.10;99.90
16823;DHT22;8528;49.976;11.858;2023-04-01T18:02:27;7.10;99.90
16823;DHT22;8528;49.976;11.858;2023-04-01T18:05:19;7.10;99.90
16823;DHT22;8528;49.976;11.858;2023-04-01T18:08:17;7.10;99.90
16823;DHT22;8528;49.976;11.858;2023-04-01T18:11:15;7.10;99.90
16823;DHT22;8528;49.976;11.858;2023-04-01T18:13:54;7.10;99.90
16823;DHT22;8528;49.976;11.858;2023-04-01T18:16:46;7.10;99.90
16823;DHT22;8528;49.976;11.858;2023-04-01T18:19:33;7.10;99.90
16823;DHT22;8528;49.976;11.858;2023-04-01T18:22:32;7.10;99.90
16823;DHT22;8528;49.976;11.858;2023-04-01T18:25:36;7.10;99.90
16823;DHT22;8528;49.976;11.858;2023-04-01T18:30:39;7.10;99.90
16823;DHT22;8528;49.976;11.858;2023-04-01T18:36:16;7.10;99.90
16823;DHT22;8528;49.976;11.858;2023-04-01T18:39:10;7.10;99.90
16823;DHT22;8528;49.976;11.858;2023-04-01T18:47:14;7.10;99.90
16823;DHT22;8528;49.976;11.858;2023-04-01T18:52:51;7.00;99.90
16823;DHT22;8528;49.976;11.858;2023-04-01T18:55:41;7.00;99.90
16823;DHT22;8528;49.976;11.858;2023-04-01T19:06:56;6.90;99.90
16823;DHT22;8528;49.976;11.858;2023-04-01T19:09:32;7.00;99.90
16823;DHT22;8528;49.976;11.858;2023-04-01T19:12:15;7.00;99.90
16823;DHT22;8528;49.976;11.858;2023-04-01T19:15:27;7.00;99.90
16823;DHT22;8528;49.976;11.858;2023-04-01T19:18:20;7.00;99.90
16823;DHT22;8528;49.976;11.858;2023-04-01T19:21:16;6.90;99.90
16823;DHT22;8528;49.976;11.858;2023-04-01T19:23:53;7.00;99.90
16823;DHT22;8528;49.976;11.858;2023-04-01T19:29:12;7.00;99.90
16823;DHT22;8528;49.976;11.858;2023-04-01T19:34:59;7.00;99.90
16823;DHT22;8528;49.976;11.858;2023-04-01T19:40:20;6.90;99.90
16823;DHT22;8528;49.976;11.858;2023-04-01T19:42:54;6.90;99.90
16823;DHT22;8528;49.976;11.858;2023-04-01T19:45:32;6.90;99.90
16823;DHT22;8528;49.976;11.858;2023-04-01T19:48:34;6.90;99.90
16823;DHT22;8528;49.976;11.858;2023-04-01T19:51:20;6.90;99.90
16823;DHT22;8528;49.976;11.858;2023-04-01T20:00:06;6.90;99.90
16823;DHT22;8528;49.976;11.858;2023-04-01T20:03:04;6.90;99.90
16823;DHT22;8528;49.976;11.858;2023-04-01T20:11:30;6.90;99.90
16823;DHT22;8528;49.976;11.858;2023-04-01T20:28:01;6.90;99.90
16823;DHT22;8528;49.976;11.858;2023-04-01T20:36:14;6.90;99.90
16823;DHT22;8528;49.976;11.858;2023-04-01T20:44:36;6.90;99.90
16823;DHT22;8528;49.976;11.858;2023-04-01T20:47:18;6.90;99.90
16823;DHT22;8528;49.976;11.858;2023-04-01T20:53:20;6.90;99.90
16823;DHT22;8528;49.976;11.858;2023-04-01T20:55:57;6.90;99.90
16823;DHT22;8528;49.976;11.858;2023-04-01T20:58:57;6.90;99.90
16823;DHT22;8528;49.976;11.858;2023-04-01T21:04:22;6.90;99.90
16823;DHT22;8528;49.976;11.858;2023-04-01T21:26:51;6.80;99.90
16823;DHT22;8528;49.976;11.858;2023-04-01T21:33:04;6.80;99.90
16823;DHT22;8528;49.976;11.858;2023-04-01T21:38:28;6.80;99.90
16823;DHT22;8528;49.976;11.858;2023-04-01T21:41:22;6.90;99.90
16823;DHT22;8528;49.976;11.858;2023-04-01T21:47:04;6.90;99.90
16823;DHT22;8528;49.976;11.858;2023-04-01T21:58:30;6.80;99.90
16823;DHT22;8528;49.976;11.858;2023-04-01T22:04:27;6.90;99.90
16823;DHT22;8528;49.976;11.858;2023-04-01T22:09:52;6.80;99.90
16823;DHT22;8528;49.976;11.858;2023-04-01T22:12:35;6.80;99.90
16823;DHT22;8528;49.976;11.858;2023-04-01T22:17:54;6.80;99.90
16823;DHT22;8528;49.976;11.858;2023-04-01T22:20:28;6.90;99.90
16823;DHT22;8528;49.976;11.858;2023-04-01T22:26:09;6.90;99.90
16823;DHT22;8528;49.976;11.858;2023-04-01T22:28:57;6.80;99.90
16823;DHT22;8528;49.976;11.858;2023-04-01T22:31:33;6.80;99.90
16823;DHT22;8528;49.976;11.858;2023-04-01T22:34:17;6.80;99.90
16823;DHT22;8528;49.976;11.858;2023-04-01T22:36:55;6.80;99.90
16823;DHT22;8528;49.976;11.858;2023-04-01T22:42:42;6.80;99.90
16823;DHT22;8528;49.976;11.858;2023-04-01T22:56:02;6.70;99.90
16823;DHT22;8528;49.976;11.858;2023-04-01T22:58:38;6.70;99.90
16823;DHT22;8528;49.976;11.858;2023-04-01T23:01:15;6.70;99.90
16823;DHT22;8528;49.976;11.858;2023-04-01T23:03:45;6.60;99.90
16823;DHT22;8528;49.976;11.858;2023-04-01T23:06:27;6.60;99.90
16823;DHT22;8528;49.976;11.858;2023-04-01T23:09:15;6.60;99.90
16823;DHT22;8528;49.976;11.858;2023-04-01T23:12:11;6.60;99.90
16823;DHT22;8528;49.976;11.858;2023-04-01T23:14:58;6.60;99.90
16823;DHT22;8528;49.976;11.858;2023-04-01T23:20:26;6.70;99.90
16823;DHT22;8528;49.976;11.858;2023-04-01T23:28:50;6.70;99.90
16823;DHT22;8528;49.976;11.858;2023-04-01T23:34:19;6.60;99.90
16823;DHT22;8528;49.976;11.858;2023-04-01T23:36:53;6.60;99.90
16823;DHT22;8528;49.976;11.858;2023-04-01T23:39:40;6.60;99.90
16823;DHT22;8528;49.976;11.858;2023-04-01T23:44:56;6.60;99.90
16823;DHT22;8528;49.976;11.858;2023-04-01T23:49:59;6.60;99.90
16823;DHT22;8528;49.976;11.858;2023-04-01T23:52:34;6.60;99.90
16823;DHT22;8528;49.976;11.858;2023-04-01T23:55:22;6.50;99.90
